Mont Saint Michel — FNMT — position and weather

sailwx.info

Track history (hours):
 
Tides and Currents Weather Stations Pressure Air Temp Water Temp Dewpoint Dewpoint Depression Visibility Wind Speed Wind Dir Waves Ship Positions

Mont Saint Michel

Last reported at 2020-Sep-18 07:30 UTC. Time now 2020-Sep-18 08:39 UTC.
Position N 50°46' W 001°05'.

Length 173 m; beam 29 m.

Type: Ship. MMSI: 227023100.

Date/timePositionNaut miles runAvg speedWind from/ knotsBaromVisibWave heightAir tempDewpointWater temp
2020-Sep-18 07:30N 50°46' W 001°05'3 5.5
2020-Sep-18 07:00N 50°49' W 001°06'3 1.6
2020-Sep-18 05:00N 50°46' W 001°05'2712.0
2020-Sep-18 02:48N 50°21' W 000°48'1310.1
2020-Sep-18 01:28N 50°09' W 000°41'510.2
2020-Sep-18 01:00N 50°04' W 000°38'49 9.0
2020-Sep-17 19:31N 49°17' W 000°15'3915.4
2020-Sep-17 17:01N 49°54' W 000°32'2919.4
2020-Sep-17 15:31N 50°21' W 000°50'1919.3
2020-Sep-17 14:31N 50°39' W 000°59'10 4.1
2020-Sep-17 12:01N 50°48' W 001°07'7318.2
2020-Sep-17 08:01N 49°40' W 000°26'918.7
2020-Sep-17 07:30N 49°32' W 000°21'918.6
2020-Sep-17 07:01N 49°23' W 000°16'611.1
2020-Sep-17 06:30N 49°17' W 000°15'13 4.3
2020-Sep-17 03:30N 49°30' W 000°15'612.9
2020-Sep-17 03:00N 49°35' W 000°22'1912.8
2020-Sep-17 01:30N 49°52' W 000°36'713.4
2020-Sep-17 01:00N 49°58' W 000°39'713.5
2020-Sep-17 00:30N 50°05' W 000°42'713.7
2020-Sep-17 00:00N 50°11' W 000°46'4011.3
2020-Sep-16 20:30N 50°49' W 001°06'0 0.0
2020-Sep-16 18:30N 50°49' W 001°06'1 1.6
2020-Sep-16 18:00N 50°48' W 001°07'1414.5
2020-Sep-16 17:00N 50°35' W 000°57'917.9
2020-Sep-16 16:30N 50°27' W 000°53'7416.4
2020-Sep-16 12:01N 49°17' W 000°15'0 0.0
2020-Sep-16 07:00N 49°17' W 000°15'4 1.8
2020-Sep-16 05:00N 49°21' W 000°14'815.6
2020-Sep-16 04:30N 49°29' W 000°16'713.0
2020-Sep-16 04:00N 49°34' W 000°21'1211.6
2020-Sep-16 03:00N 49°45' W 000°28'3913.1
2020-Sep-16 00:01N 50°22' W 000°50'815.8
2020-Sep-15 23:31N 50°29' W 000°55'1515.5
2020-Sep-15 22:31N 50°44' W 001°03'5 2.7
2020-Sep-15 20:30N 50°49' W 001°06'9714.9
2020-Sep-15 14:00N 49°17' W 000°15'0 0.0
2020-Sep-15 13:30N 49°17' W 000°15'9 6.1
2020-Sep-15 12:00N 49°26' W 000°15'4919.4
2020-Sep-15 09:30N 50°12' W 000°41'3919.4
2020-Sep-15 07:31N 50°47' W 001°06'2 0.8
2020-Sep-15 05:31N 50°49' W 001°06'3212.9
2020-Sep-15 03:00N 50°18' W 000°48'511.0
2020-Sep-15 02:30N 50°13' W 000°46'5910.8
2020-Sep-14 21:00N 49°17' W 000°15'0 0.0
2020-Sep-14 20:00N 49°17' W 000°15'8615.7
2020-Sep-14 14:30N 50°39' W 000°59'11 5.5
2020-Sep-14 12:31N 50°49' W 001°06'3514.1
2020-Sep-14 10:00N 50°16' W 000°44'6217.7
2020-Sep-14 06:30N 49°17' W 000°15'0 0.0
2020-Sep-14 05:31N 49°17' W 000°15'0 0.0
2020-Sep-14 05:00N 49°17' W 000°15'8 8.5
2020-Sep-14 04:01N 49°25' W 000°19'1019.0
2020-Sep-14 03:31N 49°34' W 000°26'816.4
2020-Sep-14 03:01N 49°42' W 000°29'815.6
2020-Sep-14 02:31N 49°49' W 000°33'815.2
2020-Sep-14 02:01N 49°56' W 000°35'1515.1
2020-Sep-14 01:01N 50°11' W 000°40'3714.8
2020-Sep-13 22:30N 50°45' W 001°05'4 7.8
2020-Sep-13 22:00N 50°49' W 001°07'1 1.1
2020-Sep-13 21:30N 50°49' W 001°06'6912.5
2020-Sep-13 16:00N 49°45' W 000°27'918.3
2020-Sep-13 15:31N 49°36' W 000°22'1817.8
2020-Sep-13 14:30N 49°19' W 000°15'1 1.4
2020-Sep-13 13:30N 49°17' W 000°15'6514.6
2020-Sep-13 09:01N 50°19' W 000°47'1118.6
2020-Sep-13 08:26N 50°29' W 000°54'18 5.4
2020-Sep-13 05:01N 50°46' W 001°06'816.8
2020-Sep-13 04:30N 50°39' W 000°59'611.5
2020-Sep-13 04:00N 50°34' W 000°55'2110.7
2020-Sep-13 02:00N 50°14' W 000°44'2811.1
2020-Sep-12 23:30N 49°47' W 000°30'2811.2
2020-Sep-12 21:00N 49°21' W 000°15'4 7.7
2020-Sep-12 20:30N 49°17' W 000°15'0 0.0
2020-Sep-12 19:30N 49°17' W 000°15'3015.2
2020-Sep-12 17:30N 49°46' W 000°30'4019.6
2020-Sep-12 15:27N 50°24' W 000°52'1919.8
2020-Sep-12 14:31N 50°42' W 001°01'27 5.8
2020-Sep-12 09:52N 50°17' W 000°45'2619.2
2020-Sep-12 08:30N 49°52' W 000°32'3718.4
2020-Sep-12 06:31N 49°17' W 000°15'0 0.0
2020-Sep-12 05:00N 49°17' W 000°15'0 0.2
2020-Sep-12 04:30N 49°17' W 000°15'4214.1
2020-Sep-12 01:30N 49°57' W 000°37'2616.3
2020-Sep-11 23:57N 50°21' W 000°51'2315.8
2020-Sep-11 22:30N 50°43' W 000°60'7 2.0
2020-Sep-11 19:01N 50°36' W 000°57'55 6.8
2020-Sep-11 11:01N 49°44' W 000°34'3517.2
2020-Sep-11 08:57N 50°18' W 000°49'919.2
2020-Sep-11 08:30N 50°26' W 000°52'919.0
2020-Sep-11 08:00N 50°35' W 000°57'15 9.8
2020-Sep-11 06:30N 50°49' W 001°06'0 0.0
2020-Sep-11 06:01N 50°49' W 001°06'17 8.6
2020-Sep-11 04:00N 50°33' W 000°54'1014.8
2020-Sep-11 03:21N 50°25' W 000°47'4712.3
2020-Sep-10 23:30N 49°40' W 000°23'1510.3
2020-Sep-10 22:00N 49°25' W 000°17'510.7
2020-Sep-10 21:30N 49°20' W 000°14'3 5.4
2020-Sep-10 21:00N 49°17' W 000°15'0 0.0
2020-Sep-10 19:30N 49°17' W 000°15'9018.0
2020-Sep-10 14:30N 50°42' W 001°02'1 0.5
2020-Sep-10 11:30N 50°43' W 001°00'918.3
2020-Sep-10 11:01N 50°34' W 000°56'3020.1
2020-Sep-10 09:31N 50°05' W 000°44'2919.5
2020-Sep-10 08:01N 49°38' W 000°26'22 7.4
2020-Sep-10 05:00N 49°17' W 000°15'14 9.6
2020-Sep-10 03:30N 49°32' W 000°18'2211.2
2020-Sep-10 01:30N 49°52' W 000°32'3815.1
2020-Sep-09 22:59N 50°28' W 000°52'23 6.5
2020-Sep-09 19:30N 50°49' W 001°06'1 0.5
2020-Sep-09 18:00N 50°48' W 001°07'612.0
2020-Sep-09 17:30N 50°43' W 001°01'2415.7
2020-Sep-09 15:58N 50°22' W 000°45'5017.0
2020-Sep-09 13:00N 49°33' W 000°22'17 8.4
2020-Sep-09 11:01N 49°17' W 000°15'0 0.0
2020-Sep-09 09:30N 49°17' W 000°15'0 0.0
2020-Sep-09 09:01N 49°17' W 000°15'0 0.0
2020-Sep-09 08:01N 49°17' W 000°15'0 0.0
2020-Sep-09 07:00N 49°17' W 000°15'0 0.0
2020-Sep-09 06:00N 49°17' W 000°15'3010.0
2020-Sep-09 03:01N 49°45' W 000°31'1212.1
2020-Sep-09 02:00N 49°57' W 000°38'1615.8
2020-Sep-09 01:01N 50°12' W 000°46'815.6
2020-Sep-09 00:31N 50°19' W 000°49'1615.8
2020-Sep-08 23:31N 50°34' W 000°57'0 0.1
2020-Sep-08 19:00N 50°34' W 000°57'4919.5
2020-Sep-08 16:30N 49°49' W 000°28'1818.3
2020-Sep-08 15:30N 49°32' W 000°20'1514.8
2020-Sep-08 14:30N 49°17' W 000°15'0 0.0
2020-Sep-08 13:30N 49°17' W 000°15'0 0.0
2020-Sep-08 13:00N 49°17' W 000°15'7418.4
2020-Sep-08 08:59N 50°28' W 000°52'1818.3
2020-Sep-08 08:01N 50°44' W 001°04'  
Track history (hours):
 
Tides and Currents Weather Stations Pressure Air Temp Water Temp Dewpoint Dewpoint Depression Visibility Wind Speed Wind Dir Waves Ship Positions

Mont Saint Michel

Last reported at 2020-Sep-18 07:30 UTC. Time now 2020-Sep-18 08:39 UTC.
Position N 50°46' W 001°05'.

Length 173 m; beam 29 m.

Type: Ship. MMSI: 227023100.

Date/timePositionNaut miles runAvg speedWind from/ knotsBaromVisibWave heightAir tempDewpointWater temp
2020-Sep-18 07:30N 50°46' W 001°05'3 5.5
2020-Sep-18 07:00N 50°49' W 001°06'3 1.6
2020-Sep-18 05:00N 50°46' W 001°05'2712.0
2020-Sep-18 02:48N 50°21' W 000°48'1310.1
2020-Sep-18 01:28N 50°09' W 000°41'510.2
2020-Sep-18 01:00N 50°04' W 000°38'49 9.0
2020-Sep-17 19:31N 49°17' W 000°15'3915.4
2020-Sep-17 17:01N 49°54' W 000°32'2919.4
2020-Sep-17 15:31N 50°21' W 000°50'1919.3
2020-Sep-17 14:31N 50°39' W 000°59'10 4.1
2020-Sep-17 12:01N 50°48' W 001°07'7318.2
2020-Sep-17 08:01N 49°40' W 000°26'918.7
2020-Sep-17 07:30N 49°32' W 000°21'918.6
2020-Sep-17 07:01N 49°23' W 000°16'611.1
2020-Sep-17 06:30N 49°17' W 000°15'13 4.3
2020-Sep-17 03:30N 49°30' W 000°15'612.9
2020-Sep-17 03:00N 49°35' W 000°22'1912.8
2020-Sep-17 01:30N 49°52' W 000°36'713.4
2020-Sep-17 01:00N 49°58' W 000°39'713.5
2020-Sep-17 00:30N 50°05' W 000°42'713.7
2020-Sep-17 00:00N 50°11' W 000°46'4011.3
2020-Sep-16 20:30N 50°49' W 001°06'0 0.0
2020-Sep-16 18:30N 50°49' W 001°06'1 1.6
2020-Sep-16 18:00N 50°48' W 001°07'1414.5
2020-Sep-16 17:00N 50°35' W 000°57'917.9
2020-Sep-16 16:30N 50°27' W 000°53'7416.4
2020-Sep-16 12:01N 49°17' W 000°15'0 0.0
2020-Sep-16 07:00N 49°17' W 000°15'4 1.8
2020-Sep-16 05:00N 49°21' W 000°14'815.6
2020-Sep-16 04:30N 49°29' W 000°16'713.0
2020-Sep-16 04:00N 49°34' W 000°21'1211.6
2020-Sep-16 03:00N 49°45' W 000°28'3913.1
2020-Sep-16 00:01N 50°22' W 000°50'815.8
2020-Sep-15 23:31N 50°29' W 000°55'1515.5
2020-Sep-15 22:31N 50°44' W 001°03'5 2.7
2020-Sep-15 20:30N 50°49' W 001°06'9714.9
2020-Sep-15 14:00N 49°17' W 000°15'0 0.0
2020-Sep-15 13:30N 49°17' W 000°15'9 6.1
2020-Sep-15 12:00N 49°26' W 000°15'4919.4
2020-Sep-15 09:30N 50°12' W 000°41'3919.4
2020-Sep-15 07:31N 50°47' W 001°06'2 0.8
2020-Sep-15 05:31N 50°49' W 001°06'3212.9
2020-Sep-15 03:00N 50°18' W 000°48'511.0
2020-Sep-15 02:30N 50°13' W 000°46'5910.8
2020-Sep-14 21:00N 49°17' W 000°15'0 0.0
2020-Sep-14 20:00N 49°17' W 000°15'8615.7
2020-Sep-14 14:30N 50°39' W 000°59'11 5.5
2020-Sep-14 12:31N 50°49' W 001°06'3514.1
2020-Sep-14 10:00N 50°16' W 000°44'6217.7
2020-Sep-14 06:30N 49°17' W 000°15'0 0.0
2020-Sep-14 05:31N 49°17' W 000°15'0 0.0
2020-Sep-14 05:00N 49°17' W 000°15'8 8.5
2020-Sep-14 04:01N 49°25' W 000°19'1019.0
2020-Sep-14 03:31N 49°34' W 000°26'816.4
2020-Sep-14 03:01N 49°42' W 000°29'815.6
2020-Sep-14 02:31N 49°49' W 000°33'815.2
2020-Sep-14 02:01N 49°56' W 000°35'1515.1
2020-Sep-14 01:01N 50°11' W 000°40'3714.8
2020-Sep-13 22:30N 50°45' W 001°05'4 7.8
2020-Sep-13 22:00N 50°49' W 001°07'1 1.1
2020-Sep-13 21:30N 50°49' W 001°06'6912.5
2020-Sep-13 16:00N 49°45' W 000°27'918.3
2020-Sep-13 15:31N 49°36' W 000°22'1817.8
2020-Sep-13 14:30N 49°19' W 000°15'1 1.4
2020-Sep-13 13:30N 49°17' W 000°15'6514.6
2020-Sep-13 09:01N 50°19' W 000°47'1118.6
2020-Sep-13 08:26N 50°29' W 000°54'18 5.4
2020-Sep-13 05:01N 50°46' W 001°06'816.8
2020-Sep-13 04:30N 50°39' W 000°59'611.5
2020-Sep-13 04:00N 50°34' W 000°55'2110.7
2020-Sep-13 02:00N 50°14' W 000°44'2811.1
2020-Sep-12 23:30N 49°47' W 000°30'2811.2
2020-Sep-12 21:00N 49°21' W 000°15'4 7.7
2020-Sep-12 20:30N 49°17' W 000°15'0 0.0
2020-Sep-12 19:30N 49°17' W 000°15'3015.2
2020-Sep-12 17:30N 49°46' W 000°30'4019.6
2020-Sep-12 15:27N 50°24' W 000°52'1919.8
2020-Sep-12 14:31N 50°42' W 001°01'27 5.8
2020-Sep-12 09:52N 50°17' W 000°45'2619.2
2020-Sep-12 08:30N 49°52' W 000°32'3718.4
2020-Sep-12 06:31N 49°17' W 000°15'0 0.0
2020-Sep-12 05:00N 49°17' W 000°15'0 0.2
2020-Sep-12 04:30N 49°17' W 000°15'4214.1
2020-Sep-12 01:30N 49°57' W 000°37'2616.3
2020-Sep-11 23:57N 50°21' W 000°51'2315.8
2020-Sep-11 22:30N 50°43' W 000°60'7 2.0
2020-Sep-11 19:01N 50°36' W 000°57'55 6.8
2020-Sep-11 11:01N 49°44' W 000°34'3517.2
2020-Sep-11 08:57N 50°18' W 000°49'919.2
2020-Sep-11 08:30N 50°26' W 000°52'919.0
2020-Sep-11 08:00N 50°35' W 000°57'15 9.8
2020-Sep-11 06:30N 50°49' W 001°06'0 0.0
2020-Sep-11 06:01N 50°49' W 001°06'17 8.6
2020-Sep-11 04:00N 50°33' W 000°54'1014.8
2020-Sep-11 03:21N 50°25' W 000°47'4712.3
2020-Sep-10 23:30N 49°40' W 000°23'1510.3
2020-Sep-10 22:00N 49°25' W 000°17'510.7
2020-Sep-10 21:30N 49°20' W 000°14'3 5.4
2020-Sep-10 21:00N 49°17' W 000°15'0 0.0
2020-Sep-10 19:30N 49°17' W 000°15'9018.0
2020-Sep-10 14:30N 50°42' W 001°02'1 0.5
2020-Sep-10 11:30N 50°43' W 001°00'918.3
2020-Sep-10 11:01N 50°34' W 000°56'3020.1
2020-Sep-10 09:31N 50°05' W 000°44'2919.5
2020-Sep-10 08:01N 49°38' W 000°26'22 7.4
2020-Sep-10 05:00N 49°17' W 000°15'14 9.6
2020-Sep-10 03:30N 49°32' W 000°18'2211.2
2020-Sep-10 01:30N 49°52' W 000°32'3815.1
2020-Sep-09 22:59N 50°28' W 000°52'23 6.5
2020-Sep-09 19:30N 50°49' W 001°06'1 0.5
2020-Sep-09 18:00N 50°48' W 001°07'612.0
2020-Sep-09 17:30N 50°43' W 001°01'2415.7
2020-Sep-09 15:58N 50°22' W 000°45'5017.0
2020-Sep-09 13:00N 49°33' W 000°22'17 8.4
2020-Sep-09 11:01N 49°17' W 000°15'0 0.0
2020-Sep-09 09:30N 49°17' W 000°15'0 0.0
2020-Sep-09 09:01N 49°17' W 000°15'0 0.0
2020-Sep-09 08:01N 49°17' W 000°15'0 0.0
2020-Sep-09 07:00N 49°17' W 000°15'0 0.0
2020-Sep-09 06:00N 49°17' W 000°15'3010.0
2020-Sep-09 03:01N 49°45' W 000°31'1212.1
2020-Sep-09 02:00N 49°57' W 000°38'1615.8
2020-Sep-09 01:01N 50°12' W 000°46'815.6
2020-Sep-09 00:31N 50°19' W 000°49'1615.8
2020-Sep-08 23:31N 50°34' W 000°57'0 0.1
2020-Sep-08 19:00N 50°34' W 000°57'4919.5
2020-Sep-08 16:30N 49°49' W 000°28'1818.3
2020-Sep-08 15:30N 49°32' W 000°20'1514.8
2020-Sep-08 14:30N 49°17' W 000°15'0 0.0
2020-Sep-08 13:30N 49°17' W 000°15'0 0.0
2020-Sep-08 13:00N 49°17' W 000°15'7418.4
2020-Sep-08 08:59N 50°28' W 000°52'1818.3
2020-Sep-08 08:01N 50°44' W 001°04'  

Dump ship's entire track history